createdAt,value
2019-05-13T00:04:55.469Z,1.62
2019-05-13T00:10:04.032Z,2.00
2019-05-13T00:15:09.342Z,1.69
2019-05-13T00:20:16.453Z,1.67
2019-05-13T00:25:24.243Z,1.74
2019-05-13T00:30:30.293Z,1.93
2019-05-13T00:35:37.403Z,1.78
2019-05-13T00:40:44.583Z,1.90
2019-05-13T00:45:53.264Z,1.80
2019-05-13T00:50:58.275Z,1.88
2019-05-13T00:56:05.362Z,1.97
2019-05-13T01:01:13.918Z,1.76
2019-05-13T01:06:19.187Z,1.97
2019-05-13T01:11:26.288Z,2.19
2019-05-13T01:16:34.044Z,2.43
2019-05-13T01:21:40.062Z,2.10
2019-05-13T01:26:47.323Z,1.89
2019-05-13T01:31:54.551Z,2.02
2019-05-13T01:37:03.983Z,2.05
2019-05-13T01:42:08.511Z,1.91
2019-05-13T01:47:15.839Z,1.98
2019-05-13T01:52:23.791Z,2.05
2019-05-13T01:57:29.746Z,2.05
2019-05-13T02:02:37.018Z,2.11
2019-05-13T02:07:57.009Z,2.10
2019-05-13T02:12:53.451Z,1.98
2019-05-13T02:17:57.772Z,2.20
2019-05-13T02:23:04.982Z,2.43
2019-05-13T02:28:13.866Z,2.03
2019-05-13T02:33:18.933Z,2.18
2019-05-13T02:38:30.258Z,2.28
2019-05-13T02:43:33.526Z,2.25
2019-05-13T02:48:41.957Z,2.36
2019-05-13T02:53:46.412Z,2.40
2019-05-13T02:58:53.571Z,2.45
2019-05-13T03:04:03.145Z,2.24
2019-05-13T03:09:07.457Z,2.47
2019-05-13T03:14:14.612Z,2.38
2019-05-13T03:19:22.410Z,2.41
2019-05-13T03:24:28.405Z,2.47
2019-05-13T03:29:35.583Z,2.45
2019-05-13T03:34:45.517Z,2.60
2019-05-13T03:39:52.206Z,2.60
2019-05-13T03:44:56.034Z,2.63
2019-05-13T03:50:03.868Z,3.07
2019-05-13T03:55:12.789Z,2.82
2019-05-13T04:00:16.451Z,2.78
2019-05-13T04:05:23.806Z,2.78
2019-05-13T04:10:33.376Z,2.82
2019-05-13T04:15:37.450Z,2.70
2019-05-13T04:20:44.578Z,2.66
2019-05-13T04:25:53.718Z,2.67
2019-05-13T04:30:58.347Z,2.64
2019-05-13T04:36:05.674Z,2.57
2019-05-13T04:41:12.829Z,2.72
2019-05-13T04:46:22.866Z,2.58
2019-05-13T04:51:26.697Z,2.21
2019-05-13T04:56:33.905Z,2.14
2019-05-13T05:01:52.259Z,2.68
2019-05-13T05:06:47.754Z,2.77
2019-05-13T05:11:54.879Z,2.50
2019-05-13T05:17:03.243Z,2.49
2019-05-13T05:22:08.779Z,2.32
2019-05-13T05:27:16.468Z,2.62
2019-05-13T05:32:23.599Z,2.37
2019-05-13T05:37:31.262Z,2.43
2019-05-13T05:42:37.386Z,2.68
2019-05-13T05:47:44.571Z,2.62
2019-05-13T05:52:51.683Z,2.48
2019-05-13T05:57:58.866Z,2.70
2019-05-13T06:03:05.998Z,2.59
2019-05-13T06:08:13.152Z,2.55
2019-05-13T06:13:21.477Z,2.52
2019-05-13T06:18:26.953Z,2.28
2019-05-13T06:23:34.082Z,2.36
2019-05-13T06:28:41.546Z,2.26
2019-05-13T06:33:48.335Z,2.43
2019-05-13T06:38:55.500Z,2.24
2019-05-13T06:44:02.871Z,2.26
2019-05-13T06:49:12.030Z,2.11
2019-05-13T06:54:16.580Z,1.88
2019-05-13T06:59:23.731Z,1.96
2019-05-13T07:04:32.732Z,1.83
2019-05-13T07:09:37.530Z,1.65
2019-05-13T07:14:44.697Z,1.78
2019-05-13T07:19:51.911Z,2.04
2019-05-13T07:24:59.012Z,1.93
2019-05-13T07:30:06.130Z,1.94
2019-05-13T07:35:14.432Z,1.95
2019-05-13T07:40:22.242Z,1.78
2019-05-13T07:45:26.698Z,1.80
2019-05-13T07:50:33.855Z,1.93
2019-05-13T07:55:42.112Z,1.79
2019-05-13T08:00:47.647Z,2.06
2019-05-13T08:05:54.795Z,2.20
2019-05-13T08:11:01.933Z,1.86
2019-05-13T08:16:09.032Z,1.88
2019-05-13T08:21:16.174Z,1.82
2019-05-13T08:26:23.322Z,1.79
2019-05-13T08:31:32.283Z,1.93
2019-05-13T08:36:39.426Z,1.89
2019-05-13T08:41:43.838Z,1.90
2019-05-13T08:46:51.969Z,1.94
2019-05-13T08:51:57.686Z,1.86
2019-05-13T08:57:04.815Z,2.06
2019-05-13T09:02:11.946Z,1.90
2019-05-13T09:07:21.828Z,2.18
2019-05-13T09:12:32.275Z,1.74
2019-05-13T09:17:32.572Z,2.01
2019-05-13T09:22:41.272Z,1.83
2019-05-13T09:27:46.397Z,1.80
2019-05-13T09:32:53.513Z,1.76
2019-05-13T09:38:03.218Z,2.18
2019-05-13T09:43:07.311Z,2.03
2019-05-13T09:48:14.413Z,1.86
2019-05-13T09:53:22.530Z,2.00
2019-05-13T09:58:30.444Z,1.84
2019-05-13T10:03:52.013Z,1.93
2019-05-13T10:08:41.949Z,1.88
2019-05-13T10:13:51.332Z,1.82
2019-05-13T10:18:55.502Z,1.83
2019-05-13T10:24:02.752Z,1.75
2019-05-13T10:29:11.871Z,1.74
2019-05-13T10:34:16.589Z,1.66
2019-05-13T10:39:24.732Z,1.93
2019-05-13T10:44:31.858Z,1.84
2019-05-13T10:49:38.988Z,1.81
2019-05-13T10:54:46.120Z,1.75
2019-05-13T10:59:53.227Z,1.66
2019-05-13T11:05:02.979Z,1.73
2019-05-13T11:10:07.069Z,1.70
2019-05-13T11:15:14.231Z,1.66
2019-05-13T11:20:22.127Z,1.66
2019-05-13T11:25:28.010Z,1.92
2019-05-13T11:30:35.341Z,1.69
2019-05-13T11:35:42.458Z,1.74
2019-05-13T11:40:52.461Z,1.70
2019-05-13T11:45:56.255Z,1.68
2019-05-13T11:51:04.153Z,1.66
2019-05-13T11:56:11.482Z,1.69
2019-05-13T12:01:16.679Z,1.74
2019-05-13T12:06:23.811Z,1.72
2019-05-13T12:11:33.371Z,1.84
2019-05-13T12:16:37.634Z,1.75
2019-05-13T12:21:46.811Z,1.75
2019-05-13T12:26:53.105Z,1.96
2019-05-13T12:31:58.312Z,1.87
2019-05-13T12:37:05.466Z,1.89
2019-05-13T12:42:12.906Z,1.96
2019-05-13T12:47:22.159Z,1.81
2019-05-13T12:52:26.596Z,2.08
2019-05-13T12:57:33.881Z,1.89
2019-05-13T13:02:41.000Z,2.03
2019-05-13T13:08:13.718Z,1.98
2019-05-13T13:12:55.057Z,2.02
2019-05-13T13:18:02.512Z,1.73
2019-05-13T13:23:08.578Z,2.01
2019-05-13T13:28:15.636Z,1.96
2019-05-13T13:33:21.966Z,1.96
2019-05-13T13:38:32.461Z,1.88
2019-05-13T13:43:37.467Z,1.99
2019-05-13T13:48:43.706Z,1.93
2019-05-13T13:53:49.341Z,2.13
2019-05-13T13:58:56.549Z,2.02
2019-05-13T14:04:04.002Z,2.12
2019-05-13T14:09:12.016Z,1.87
2019-05-13T14:14:17.461Z,1.97
2019-05-13T14:19:24.618Z,2.01
2019-05-13T14:24:33.055Z,2.07
2019-05-13T14:29:42.605Z,1.81
2019-05-13T14:34:45.129Z,1.98
2019-05-13T14:39:52.244Z,1.89
2019-05-13T14:45:01.585Z,2.01
2019-05-13T14:50:05.994Z,1.92
2019-05-13T14:55:13.115Z,2.17
2019-05-13T15:00:22.016Z,2.11
2019-05-13T15:05:26.910Z,2.08
2019-05-13T15:10:34.055Z,1.85
2019-05-13T15:15:42.148Z,2.07
2019-05-13T15:20:47.876Z,1.95
2019-05-13T15:25:55.021Z,1.87
2019-05-13T15:31:02.213Z,2.22
2019-05-13T15:36:11.750Z,1.97
2019-05-13T15:41:16.430Z,2.13
2019-05-13T15:46:23.620Z,2.00
2019-05-13T15:51:31.599Z,1.93
2019-05-13T15:56:37.518Z,1.96
2019-05-13T16:01:44.811Z,1.84
2019-05-13T16:06:52.235Z,1.88
2019-05-13T16:12:01.491Z,1.78
2019-05-13T16:17:06.042Z,1.99
2019-05-13T16:22:13.786Z,1.87
2019-05-13T16:27:22.174Z,1.77
2019-05-13T16:32:27.645Z,1.87
2019-05-13T16:37:34.768Z,1.73
2019-05-13T16:42:42.352Z,1.71
2019-05-13T16:47:59.346Z,1.94
2019-05-13T16:52:55.355Z,1.78
2019-05-13T16:58:03.662Z,1.91
2019-05-13T17:03:11.566Z,1.63
2019-05-13T17:08:19.017Z,2.09
2019-05-13T17:13:27.797Z,2.04
2019-05-13T17:18:35.021Z,1.82
2019-05-13T17:23:42.410Z,1.71
2019-05-13T17:28:51.766Z,1.84
2019-05-13T17:33:56.269Z,1.84
2019-05-13T17:39:03.922Z,1.76
2019-05-13T17:44:11.870Z,1.63
2019-05-13T17:49:18.955Z,1.66
2019-05-13T17:54:26.085Z,1.96
2019-05-13T17:59:33.238Z,1.66
2019-05-13T18:04:41.599Z,1.66
2019-05-13T18:09:51.795Z,1.64
2019-05-13T18:14:57.433Z,1.68
2019-05-13T18:20:06.124Z,1.74
2019-05-13T18:25:13.867Z,1.65
2019-05-13T18:30:21.065Z,1.53
2019-05-13T18:35:31.288Z,1.61
2019-05-13T18:40:36.512Z,1.61
2019-05-13T18:45:43.717Z,1.97
2019-05-13T18:50:52.817Z,2.13
2019-05-13T18:56:01.944Z,1.83
2019-05-13T19:01:07.729Z,1.78
2019-05-13T19:06:15.444Z,1.75
2019-05-13T19:11:22.707Z,1.89
2019-05-13T19:16:31.782Z,1.57
2019-05-13T19:21:36.521Z,1.62
2019-05-13T19:26:43.613Z,1.80
2019-05-13T19:31:51.100Z,1.80
2019-05-13T19:36:57.900Z,1.56
2019-05-13T19:42:05.053Z,1.76
2019-05-13T19:47:12.545Z,1.77
2019-05-13T19:52:21.292Z,1.83
2019-05-13T19:57:26.057Z,1.87
2019-05-13T20:02:35.521Z,1.80
2019-05-13T20:07:42.764Z,1.96
2019-05-13T20:12:51.299Z,2.03
2019-05-13T20:17:57.170Z,2.11
2019-05-13T20:23:04.309Z,1.90
2019-05-13T20:28:15.976Z,1.93
2019-05-13T20:33:13.155Z,2.09
2019-05-13T20:38:22.160Z,2.19
2019-05-13T20:43:33.553Z,2.12
2019-05-13T20:48:32.110Z,1.89
2019-05-13T20:53:41.095Z,2.15
2019-05-13T20:58:45.637Z,1.96
2019-05-13T21:03:53.002Z,2.14
2019-05-13T21:09:01.536Z,2.11
2019-05-13T21:14:06.842Z,2.10
2019-05-13T21:19:13.982Z,2.45
2019-05-13T21:24:21.425Z,2.30
2019-05-13T21:29:28.231Z,2.01
2019-05-13T21:34:35.335Z,2.28
2019-05-13T21:39:42.515Z,2.21
2019-05-13T21:44:51.308Z,2.30
2019-05-13T21:49:56.424Z,2.38
2019-05-13T21:55:03.616Z,2.31
2019-05-13T22:00:10.748Z,2.14
2019-05-13T22:05:17.858Z,1.98
2019-05-13T22:10:24.989Z,2.06
2019-05-13T22:15:32.408Z,1.86
2019-05-13T22:20:49.463Z,2.10
2019-05-13T22:25:45.894Z,2.01
2019-05-13T22:30:53.014Z,2.03
2019-05-13T22:36:01.669Z,2.21
2019-05-13T22:41:06.823Z,2.17
2019-05-13T22:46:14.229Z,2.18
2019-05-13T22:51:21.450Z,2.04
2019-05-13T22:56:28.224Z,2.23
2019-05-13T23:01:35.327Z,1.98
2019-05-13T23:06:42.496Z,1.96
2019-05-13T23:11:51.137Z,2.16
2019-05-13T23:16:56.304Z,2.29
2019-05-13T23:22:03.424Z,2.18
2019-05-13T23:27:11.051Z,2.12
2019-05-13T23:32:17.225Z,2.24
2019-05-13T23:37:24.350Z,2.26
2019-05-13T23:42:31.997Z,2.26
2019-05-13T23:47:38.132Z,2.21
2019-05-13T23:52:45.308Z,2.28
2019-05-13T23:57:52.598Z,2.14
